Time;durP1;ratioP1;P1;durP2;ratioP2;P2;SDS_P1;SDS_P2;PMS_P1;PMS_P2;Temp;Humidity;BMP_temperature;BMP_pressure;BME280_temperature;BME280_humidity;BME280_pressure;Samples;Min_cycle;Max_cycle;Signal;HPM_P1;HPM_P2
2022/09/04 00:00:23;;;;;;;1.05;0.63;;;;;;;16.05;59.71;100958.87;480797;110;922547;-71
2022/09/04 00:01:45;;;;;;;1.41;0.69;;;;;;;16.05;59.68;100967.12;481967;110;922544;-71
2022/09/04 00:02:52;;;;;;;1.09;0.61;;;;;;;16.04;59.86;100968.23;481823;110;922495;-71
2022/09/04 00:04:01;;;;;;;1.56;0.86;;;;;;;16.04;60.25;100970.14;481262;110;922995;-71
2022/09/04 00:05:18;;;;;;;1.64;0.85;;;;;;;16.04;60.27;100975.64;480652;110;922469;-71
2022/09/04 00:06:26;;;;;;;2.07;0.63;;;;;;;16.05;60.31;100974.55;481901;110;922812;-72
2022/09/04 00:07:42;;;;;;;2.26;0.93;;;;;;;16.05;60.28;100971.79;481823;110;922807;-71
2022/09/04 00:09:07;;;;;;;1.46;0.67;;;;;;;16.06;60.35;100963.31;481817;110;922922;-71
2022/09/04 00:10:19;;;;;;;1.82;0.76;;;;;;;16.08;60.38;100963.08;480571;110;922449;-71
2022/09/04 00:11:40;;;;;;;1.34;0.64;;;;;;;16.09;60.46;100970.25;481785;110;922565;-72
2022/09/04 00:12:52;;;;;;;0.96;0.57;;;;;;;16.11;60.38;100974.42;481298;110;922648;-71
2022/09/04 00:14:01;;;;;;;1.05;0.50;;;;;;;16.10;60.31;100972.74;453300;117;923248;-72
2022/09/04 00:15:14;;;;;;;0.75;0.51;;;;;;;16.11;60.25;100977.17;474729;110;923374;-71
2022/09/04 00:16:21;;;;;;;1.90;0.99;;;;;;;16.11;60.22;100976.33;473162;112;923077;-71
2022/09/04 00:17:31;;;;;;;0.48;0.46;;;;;;;16.11;60.25;100982.67;471928;112;923525;-71
2022/09/04 00:18:38;;;;;;;0.52;0.42;;;;;;;16.12;60.04;100987.10;458252;115;923552;-71
2022/09/04 00:19:52;;;;;;;1.21;0.67;;;;;;;16.11;59.85;100985.42;466795;112;922943;-71
2022/09/04 00:21:35;;;;;;;1.30;0.68;;;;;;;16.10;59.90;100997.50;473145;112;922986;-71
2022/09/04 00:22:53;;;;;;;0.99;0.57;;;;;;;16.10;59.85;101000.25;473173;111;922947;-71
2022/09/04 00:24:03;;;;;;;1.16;0.54;;;;;;;16.10;59.80;101005.75;473172;112;922555;-71
2022/09/04 00:25:16;;;;;;;1.56;0.56;;;;;;;16.08;60.03;101007.92;473311;112;923000;-71
2022/09/04 00:26:39;;;;;;;3.06;0.69;;;;;;;16.08;60.05;101007.92;473117;112;922504;-71
2022/09/04 00:27:45;;;;;;;1.72;0.65;;;;;;;16.08;60.06;101015.34;473231;112;922555;-71
2022/09/04 00:28:51;;;;;;;0.72;0.48;;;;;;;16.07;60.05;101019.16;473202;112;923156;-71
2022/09/04 00:30:01;;;;;;;0.77;0.52;;;;;;;16.06;59.82;101023.83;474274;111;922934;-71
2022/09/04 00:31:35;;;;;;;2.02;0.61;;;;;;;16.05;59.85;101018.55;474596;111;922555;-72
2022/09/04 00:33:08;;;;;;;1.12;0.58;;;;;;;16.03;59.95;101013.31;469989;112;922492;-72
2022/09/04 00:34:20;;;;;;;1.66;0.79;;;;;;;16.04;59.98;101025.16;467357;112;922961;-72
2022/09/04 00:35:33;;;;;;;0.96;0.53;;;;;;;16.02;60.11;101017.14;467396;113;922495;-72
2022/09/04 00:36:40;;;;;;;1.18;0.61;;;;;;;16.04;60.18;101027.91;467397;113;923540;-72
2022/09/04 00:38:10;;;;;;;1.03;0.77;;;;;;;16.05;60.20;101026.80;467456;113;922508;-72
2022/09/04 00:39:16;;;;;;;1.17;0.62;;;;;;;16.06;60.26;101022.98;467411;111;922800;-72
2022/09/04 00:40:32;;;;;;;1.06;0.51;;;;;;;16.07;60.43;101020.00;467417;113;923069;-73
2022/09/04 00:41:45;;;;;;;1.13;0.54;;;;;;;16.08;60.34;101018.93;467374;113;923090;-71
2022/09/04 00:43:10;;;;;;;1.29;0.72;;;;;;;16.10;60.40;101013.16;467367;113;923067;-72
2022/09/04 00:44:44;;;;;;;0.92;0.60;;;;;;;16.10;60.45;101014.00;467379;111;922664;-72
2022/09/04 00:46:07;;;;;;;1.50;0.71;;;;;;;16.20;60.17;100997.75;477017;110;946861;-71
2022/09/04 00:47:36;;;;;;;1.23;0.50;;;;;;;16.07;60.09;100991.66;465352;114;922585;-71
2022/09/04 00:48:49;;;;;;;2.35;0.81;;;;;;;16.03;60.14;100988.56;462854;114;922986;-71
2022/09/04 00:50:10;;;;;;;1.13;0.56;;;;;;;16.01;60.36;100996.20;457279;116;922895;-72
2022/09/04 00:51:31;;;;;;;2.77;0.66;;;;;;;15.99;60.45;100984.59;456735;116;922594;-72
2022/09/04 00:52:52;;;;;;;0.77;0.44;;;;;;;16.00;60.44;100979.94;435477;121;923218;-71
2022/09/04 00:54:05;;;;;;;1.03;0.59;;;;;;;15.97;60.97;100989.52;456416;114;922929;-71
2022/09/04 00:55:28;;;;;;;1.54;0.59;;;;;;;15.94;61.30;100987.23;456781;115;922543;-71
2022/09/04 00:56:53;;;;;;;0.82;0.62;;;;;;;15.93;61.64;100990.25;456487;115;922568;-72
2022/09/04 00:58:15;;;;;;;1.47;0.61;;;;;;;15.92;61.76;100991.31;457400;116;923031;-71
2022/09/04 00:59:56;;;;;;;0.80;0.48;;;;;;;15.86;61.80;100973.86;449517;116;923018;-72
2022/09/04 01:01:01;;;;;;;0.64;0.41;;;;;;;15.81;62.00;100985.59;449547;118;922904;-72
2022/09/04 01:02:14;;;;;;;1.86;0.92;;;;;;;15.69;62.54;100984.73;449533;117;922615;-72
2022/09/04 01:04:04;;;;;;;1.22;0.68;;;;;;;15.73;63.35;100990.59;476449;110;946761;-71
2022/09/04 01:05:27;;;;;;;2.05;0.80;;;;;;;15.58;63.75;100991.06;457291;116;922487;-72
2022/09/04 01:06:38;;;;;;;2.35;0.92;;;;;;;15.52;64.30;100983.77;457340;116;923206;-72
2022/09/04 01:07:52;;;;;;;1.43;0.73;;;;;;;15.48;64.62;100992.70;457245;116;922590;-72
2022/09/04 01:09:17;;;;;;;1.07;0.58;;;;;;;15.45;64.70;100992.09;457345;113;922633;-72
2022/09/04 01:10:39;;;;;;;1.54;0.68;;;;;;;15.42;64.90;100994.48;457318;116;923090;-72
2022/09/04 01:12:01;;;;;;;1.91;0.78;;;;;;;15.40;65.04;100997.45;457088;115;922972;-72
2022/09/04 01:13:37;;;;;;;1.96;0.72;;;;;;;15.39;65.26;101005.93;457278;116;923189;-72
2022/09/04 01:15:10;;;;;;;1.67;0.88;;;;;;;15.38;65.38;101010.59;438753;120;922735;-72
2022/09/04 01:16:22;;;;;;;1.36;0.81;;;;;;;15.37;65.35;101014.43;434768;122;923264;-72
2022/09/04 01:17:35;;;;;;;1.13;0.61;;;;;;;15.36;65.36;101017.41;446237;117;922573;-72
2022/09/04 01:18:51;;;;;;;1.16;0.83;;;;;;;15.36;65.37;101017.41;431312;121;923154;-72
2022/09/04 01:20:22;;;;;;;1.82;0.79;;;;;;;15.37;65.44;101016.34;447573;117;922511;-72
2022/09/04 01:21:47;;;;;;;2.53;0.78;;;;;;;15.39;65.37;101019.67;449047;117;922530;-72
2022/09/04 01:22:56;;;;;;;2.66;0.82;;;;;;;15.40;65.29;101013.11;449401;118;930369;-72
2022/09/04 01:24:09;;;;;;;1.37;0.61;;;;;;;15.41;65.23;101007.38;449821;118;922584;-71
2022/09/04 01:25:21;;;;;;;1.46;0.70;;;;;;;15.45;65.06;101025.06;449451;118;922990;-71
2022/09/04 01:26:46;;;;;;;2.39;0.86;;;;;;;15.47;64.93;101013.00;449066;117;923059;-71
2022/09/04 01:27:56;;;;;;;1.72;0.54;;;;;;;15.49;64.87;101016.37;442987;119;923228;-72
2022/09/04 01:29:27;;;;;;;1.71;0.67;;;;;;;15.52;64.60;101027.74;446102;117;922812;-71
2022/09/04 01:30:46;;;;;;;0.71;0.64;;;;;;;15.54;64.32;101024.77;449485;118;923596;-71
2022/09/04 01:32:11;;;;;;;2.62;0.58;;;;;;;15.54;64.04;101025.61;444788;119;923281;-71
2022/09/04 01:33:32;;;;;;;1.08;0.59;;;;;;;15.55;64.06;101031.95;448078;117;922854;-72
2022/09/04 01:35:00;;;;;;;1.40;0.67;;;;;;;15.56;63.79;101036.34;449254;117;923046;-72
2022/09/04 01:36:07;;;;;;;2.05;0.91;;;;;;;15.57;63.72;101040.77;449439;118;923086;-71
2022/09/04 01:37:41;;;;;;;1.17;0.64;;;;;;;15.58;63.77;101032.30;449025;117;922488;-72
2022/09/04 01:38:50;;;;;;;1.21;0.95;;;;;;;15.60;63.51;101037.56;440611;118;923890;-71
2022/09/04 01:40:05;;;;;;;1.21;0.79;;;;;;;15.58;63.15;101037.80;440671;120;923300;-71
2022/09/04 01:41:33;;;;;;;1.29;0.88;;;;;;;15.57;63.10;101035.27;442609;117;923266;-73
2022/09/04 01:42:51;;;;;;;1.44;0.92;;;;;;;15.58;62.96;101039.70;449290;117;922507;-72
2022/09/04 01:43:54;;;;;;;1.32;1.18;;;;;;;15.57;62.82;101038.86;449436;115;922801;-72
2022/09/04 01:44:57;;;;;;;2.09;1.16;;;;;;;15.56;62.71;101034.44;449594;118;923061;-71
2022/09/04 01:46:22;;;;;;;3.26;1.25;;;;;;;15.56;62.75;101037.18;449641;118;930315;-72
2022/09/04 01:47:31;;;;;;;1.48;1.12;;;;;;;15.58;62.83;101028.70;440856;117;923057;-71
2022/09/04 01:49:01;;;;;;;2.46;1.39;;;;;;;15.59;63.00;101027.64;449159;117;922505;-71
2022/09/04 01:50:07;;;;;;;2.14;1.46;;;;;;;15.60;62.81;101027.37;449469;118;922539;-72
2022/09/04 01:51:17;;;;;;;3.06;1.87;;;;;;;15.59;62.72;101022.14;449329;117;922556;-72
2022/09/04 01:52:58;;;;;;;1.94;1.54;;;;;;;15.58;62.54;101021.30;449302;118;923313;-72
2022/09/04 01:54:14;;;;;;;2.04;1.54;;;;;;;15.56;62.42;101026.19;449442;115;922576;-71
2022/09/04 01:55:32;;;;;;;2.01;1.54;;;;;;;15.53;62.52;101028.58;449515;118;923051;-72
2022/09/04 01:56:45;;;;;;;2.02;1.56;;;;;;;15.51;62.55;101020.53;449507;118;923023;-72
2022/09/04 01:57:58;;;;;;;2.92;1.30;;;;;;;15.50;62.30;101021.60;449470;117;922506;-72
2022/09/04 01:59:10;;;;;;;1.91;1.35;;;;;;;15.49;62.33;101017.20;459338;115;923026;-72
2022/09/04 02:00:24;;;;;;;4.45;1.62;;;;;;;15.59;62.39;101016.64;482441;110;946714;-72
2022/09/04 02:01:43;;;;;;;2.15;1.41;;;;;;;15.48;62.41;101018.27;473840;112;922530;-72
2022/09/04 02:03:14;;;;;;;2.21;1.17;;;;;;;15.49;62.43;101011.71;473038;112;923011;-72
2022/09/04 02:04:35;;;;;;;;;;;;;;;15.50;62.44;101018.85;476725;112;922776;-72
2022/09/04 02:06:06;;;;;;;1.11;1.01;;;;;;;15.50;62.43;101023.51;473774;112;922959;-72
2022/09/04 02:07:15;;;;;;;2.25;1.22;;;;;;;15.45;62.37;101027.81;472845;112;922559;-72
2022/09/04 02:08:39;;;;;;;1.87;1.22;;;;;;;15.42;62.32;101028.30;473815;112;923162;-72
2022/09/04 02:09:53;;;;;;;2.16;1.02;;;;;;;15.40;62.25;101029.59;466851;112;923017;-72
2022/09/04 02:11:00;;;;;;;1.64;0.96;;;;;;;15.38;62.19;101013.33;465393;114;923188;-71
2022/09/04 02:12:34;;;;;;;1.38;0.91;;;;;;;15.36;62.01;101020.16;464279;114;922543;-72
2022/09/04 02:13:43;;;;;;;3.78;1.44;;;;;;;15.34;61.91;101009.39;465272;114;922502;-72
2022/09/04 02:14:56;;;;;;;1.82;0.98;;;;;;;15.30;61.94;101010.10;465303;114;922883;-72
2022/09/04 02:16:13;;;;;;;1.87;1.17;;;;;;;15.27;62.08;101016.08;465363;114;922471;-72
2022/09/04 02:17:22;;;;;;;1.58;0.78;;;;;;;15.24;62.11;101011.88;465317;114;923013;-72
2022/09/04 02:18:47;;;;;;;2.48;0.93;;;;;;;15.20;62.19;101015.34;464480;114;922925;-72
2022/09/04 02:20:10;;;;;;;1.27;0.81;;;;;;;15.16;62.26;101009.45;465292;114;923101;-72
2022/09/04 02:21:23;;;;;;;4.40;1.01;;;;;;;15.11;62.39;100998.34;465378;114;922580;-72
2022/09/04 02:22:57;;;;;;;2.53;0.74;;;;;;;15.05;63.01;100993.78;465400;114;923052;-72
2022/09/04 02:24:22;;;;;;;1.32;0.80;;;;;;;15.00;63.42;100997.23;465359;114;922490;-72
2022/09/04 02:25:35;;;;;;;2.23;0.84;;;;;;;14.97;63.67;101003.20;465330;114;923226;-72
2022/09/04 02:26:48;;;;;;;1.85;0.87;;;;;;;14.97;63.85;101010.60;463828;114;922814;-72
2022/09/04 02:28:06;;;;;;;1.66;1.01;;;;;;;14.96;63.83;101008.92;464544;114;922619;-72
2022/09/04 02:29:43;;;;;;;1.74;1.27;;;;;;;14.96;63.87;101015.25;453519;116;923129;-72
2022/09/04 02:31:02;;;;;;;1.23;0.95;;;;;;;14.94;63.58;101014.64;465017;114;922541;-72
2022/09/04 02:32:11;;;;;;;2.28;1.09;;;;;;;14.91;63.52;101025.26;465381;114;922521;-72
2022/09/04 02:33:21;;;;;;;3.47;1.00;;;;;;;14.88;63.63;101020.24;465416;114;922573;-71
2022/09/04 02:34:27;;;;;;;1.46;0.80;;;;;;;14.86;63.81;101019.63;464791;112;922461;-71
2022/09/04 02:35:40;;;;;;;1.69;0.93;;;;;;;14.85;63.86;101016.05;465276;114;922536;-72
2022/09/04 02:36:52;;;;;;;1.76;1.04;;;;;;;14.85;63.83;101026.19;465169;114;922583;-71
2022/09/04 02:38:23;;;;;;;1.49;0.86;;;;;;;14.83;63.97;101020.91;465214;114;922561;-72
2022/09/04 02:39:54;;;;;;;1.22;0.84;;;;;;;14.84;63.98;101022.59;445967;118;923311;-72
2022/09/04 02:41:07;;;;;;;2.11;1.38;;;;;;;14.85;63.66;101026.19;464822;114;923028;-71
2022/09/04 02:42:31;;;;;;;0.98;0.65;;;;;;;14.79;63.79;101019.71;464607;114;922596;-72
2022/09/04 02:43:53;;;;;;;1.27;0.95;;;;;;;14.76;64.07;101028.42;465272;113;922564;-71
2022/09/04 02:45:01;;;;;;;1.43;0.99;;;;;;;14.74;64.01;101026.97;447816;118;923339;-71
2022/09/04 02:46:22;;;;;;;1.65;1.01;;;;;;;14.70;63.94;101028.50;447651;118;923006;-71
2022/09/04 02:47:39;;;;;;;1.58;1.07;;;;;;;14.77;64.00;101032.85;477104;110;946845;-72
2022/09/04 02:48:52;;;;;;;1.47;1.02;;;;;;;14.66;63.92;101038.28;467591;112;922830;-72
2022/09/04 02:50:18;;;;;;;1.28;0.88;;;;;;;14.66;63.69;101032.79;470852;112;922967;-71
2022/09/04 02:51:46;;;;;;;2.17;0.93;;;;;;;14.65;63.65;101031.11;471374;112;922846;-72
2022/09/04 02:53:10;;;;;;;1.98;0.93;;;;;;;14.66;63.76;101027.30;471300;112;922805;-72
2022/09/04 02:54:31;;;;;;;2.27;1.47;;;;;;;14.66;63.54;101025.39;470395;112;922575;-71
2022/09/04 02:55:53;;;;;;;1.59;0.99;;;;;;;14.67;63.57;101034.44;470355;112;923488;-71
2022/09/04 02:57:14;;;;;;;1.73;1.06;;;;;;;14.66;63.52;101035.53;471351;112;923039;-72
2022/09/04 02:58:46;;;;;;;1.37;1.08;;;;;;;14.64;63.17;101026.68;470241;112;922954;-71
2022/09/04 03:00:18;;;;;;;1.78;1.04;;;;;;;14.59;63.30;101030.97;463331;114;922623;-71
2022/09/04 03:01:32;;;;;;;2.04;1.45;;;;;;;14.59;63.50;101033.70;463061;114;922677;-72
2022/09/04 03:02:48;;;;;;;2.62;1.10;;;;;;;14.58;63.43;101023.80;462918;114;922550;-72
2022/09/04 03:03:57;;;;;;;1.68;1.07;;;;;;;14.57;63.50;101037.73;463025;114;922885;-72
2022/09/04 03:05:10;;;;;;;1.34;0.93;;;;;;;14.58;63.58;101033.92;463059;114;923355;-72
2022/09/04 03:06:22;;;;;;;1.13;0.92;;;;;;;14.60;63.52;101026.31;453516;117;923309;-71
2022/09/04 03:07:46;;;;;;;1.23;0.89;;;;;;;14.59;63.44;101027.37;462790;114;922529;-72
2022/09/04 03:08:52;;;;;;;1.84;1.11;;;;;;;14.57;63.38;101021.27;462119;114;923005;-71
2022/09/04 03:10:05;;;;;;;2.14;0.94;;;;;;;14.51;63.43;101020.28;463061;114;923040;-72
2022/09/04 03:11:15;;;;;;;1.95;1.13;;;;;;;14.49;63.69;101018.85;463027;114;922564;-71
2022/09/04 03:12:36;;;;;;;1.55;1.05;;;;;;;14.50;63.90;101024.09;462756;114;923534;-72
2022/09/04 03:14:02;;;;;;;0.94;0.82;;;;;;;14.52;63.97;101024.71;462096;114;922585;-72
2022/09/04 03:15:12;;;;;;;1.46;0.97;;;;;;;14.53;63.72;101023.65;463507;112;922924;-72
2022/09/04 03:16:35;;;;;;;2.05;1.03;;;;;;;14.51;63.54;101030.42;471031;112;922615;-72
2022/09/04 03:17:48;;;;;;;1.74;1.19;;;;;;;14.49;63.56;101021.59;444949;118;923271;-71
2022/09/04 03:19:04;;;;;;;1.90;1.06;;;;;;;14.45;63.64;101029.43;471282;112;922798;-71
2022/09/04 03:20:13;;;;;;;1.29;1.03;;;;;;;14.43;63.65;101030.74;471172;112;922965;-72
2022/09/04 03:21:22;;;;;;;2.36;1.02;;;;;;;14.42;63.79;101023.58;471095;112;922606;-72
2022/09/04 03:22:40;;;;;;;1.86;1.23;;;;;;;14.41;63.83;101019.15;470397;112;923549;-72
2022/09/04 03:23:47;;;;;;;1.53;1.00;;;;;;;14.41;63.92;101019.98;471050;112;923041;-72
2022/09/04 03:25:06;;;;;;;1.53;1.24;;;;;;;14.41;64.11;101027.37;471300;112;922923;-72
2022/09/04 03:26:28;;;;;;;1.58;1.30;;;;;;;14.42;64.14;101020.83;470799;112;923382;-72
2022/09/04 03:27:33;;;;;;;1.49;1.33;;;;;;;14.41;64.50;101016.41;471293;112;923019;-72
2022/09/04 03:28:59;;;;;;;1.35;1.14;;;;;;;14.41;64.48;101022.73;471278;112;923107;-72
2022/09/04 03:30:11;;;;;;;1.94;1.09;;;;;;;14.41;64.57;101022.73;466763;112;922842;-72
2022/09/04 03:31:30;;;;;;;1.45;1.14;;;;;;;14.40;64.64;101017.47;463055;114;922570;-71
2022/09/04 03:32:45;;;;;;;2.37;1.32;;;;;;;14.40;64.59;101023.80;463045;114;922551;-70
2022/09/04 03:33:52;;;;;;;2.03;1.49;;;;;;;14.42;64.66;101029.06;464994;112;922455;-70
2022/09/04 03:35:07;;;;;;;2.52;1.39;;;;;;;14.42;64.73;101018.93;470793;112;922578;-73
2022/09/04 03:36:14;;;;;;;1.74;1.64;;;;;;;14.44;64.62;101022.30;470568;112;923023;-71
2022/09/04 03:37:43;;;;;;;1.98;1.68;;;;;;;14.45;64.39;101026.69;471347;112;923184;-71
2022/09/04 03:39:11;;;;;;;1.89;1.49;;;;;;;14.43;64.28;101028.84;471352;112;922841;-71
2022/09/04 03:40:41;;;;;;;2.22;1.51;;;;;;;14.39;64.37;101027.59;470795;112;923402;-71
2022/09/04 03:42:03;;;;;;;1.62;1.22;;;;;;;14.34;64.79;101024.67;471303;112;922594;-71
2022/09/04 03:43:23;;;;;;;3.42;1.37;;;;;;;14.34;65.19;101032.06;470796;112;922979;-71
2022/09/04 03:44:47;;;;;;;2.66;1.48;;;;;;;14.33;65.20;101030.41;470508;112;930238;-72
2022/09/04 03:46:10;;;;;;;2.96;1.52;;;;;;;14.30;65.24;101020.72;470871;112;922539;-72
2022/09/04 03:47:38;;;;;;;1.61;1.18;;;;;;;14.31;65.56;101018.82;469502;112;922902;-72
2022/09/04 03:49:06;;;;;;;2.24;1.57;;;;;;;14.33;65.60;101014.80;470314;112;922571;-72
2022/09/04 03:50:13;;;;;;;2.38;1.57;;;;;;;14.34;65.67;101010.96;471278;112;922601;-72
2022/09/04 03:51:24;;;;;;;1.88;1.45;;;;;;;14.34;65.67;101008.22;460912;112;922821;-72
2022/09/04 03:52:34;;;;;;;2.69;1.19;;;;;;;14.36;65.72;101008.84;471014;112;922553;-71
2022/09/04 03:53:44;;;;;;;1.84;1.24;;;;;;;14.38;65.67;101009.48;471320;112;923058;-71
2022/09/04 03:55:10;;;;;;;1.60;1.26;;;;;;;14.41;65.66;101008.17;471637;112;923050;-72
2022/09/04 03:56:20;;;;;;;1.99;1.29;;;;;;;14.41;65.38;101011.76;471337;112;923062;-72
2022/09/04 03:57:51;;;;;;;1.82;1.24;;;;;;;14.43;65.38;101009.64;470293;112;922606;-72
2022/09/04 03:59:04;;;;;;;;;;;;;;;14.46;65.35;101011.91;468954;112;922319;-72
2022/09/04 04:00:17;;;;;;;1.16;0.85;;;;;;;14.50;65.32;101009.56;462934;114;922645;-72
2022/09/04 04:01:41;;;;;;;1.28;1.06;;;;;;;14.49;65.38;101005.98;462962;114;922712;-72
2022/09/04 04:03:21;;;;;;;1.21;0.93;;;;;;;14.50;65.30;101002.14;462874;114;923047;-72
2022/09/04 04:04:46;;;;;;;2.03;1.06;;;;;;;14.53;65.18;101007.19;462300;114;923015;-72
2022/09/04 04:06:26;;;;;;;2.69;1.09;;;;;;;14.55;65.06;101004.22;462938;114;923158;-71
2022/09/04 04:08:01;;;;;;;1.64;1.14;;;;;;;14.57;65.05;101002.06;462889;114;923348;-72
2022/09/04 04:09:10;;;;;;;2.79;1.29;;;;;;;14.58;67.16;101012.81;462836;114;923530;-72
2022/09/04 04:10:34;;;;;;;1.53;1.21;;;;;;;14.59;70.36;101011.75;449843;114;922900;-72
2022/09/04 04:11:41;;;;;;;1.83;1.06;;;;;;;14.61;71.61;101017.83;462939;114;922626;-71
2022/09/04 04:13:11;;;;;;;2.10;1.23;;;;;;;14.64;72.54;101007.47;462887;114;922718;-71
2022/09/04 04:14:22;;;;;;;1.80;1.39;;;;;;;14.66;72.87;101008.09;462939;114;922894;-72
2022/09/04 04:15:47;;;;;;;2.21;1.37;;;;;;;14.69;73.07;101008.45;451184;117;923124;-71
2022/09/04 04:17:06;;;;;;;1.99;1.77;;;;;;;14.72;73.18;101012.66;462256;114;922556;-71
2022/09/04 04:18:40;;;;;;;2.01;1.14;;;;;;;14.73;73.42;101011.56;462387;114;922492;-71
2022/09/04 04:20:04;;;;;;;2.62;1.68;;;;;;;14.74;73.64;101014.08;462927;114;922584;-71
2022/09/04 04:21:16;;;;;;;1.62;1.24;;;;;;;14.76;73.86;101006.47;462874;114;922960;-72
2022/09/04 04:22:40;;;;;;;1.93;1.33;;;;;;;14.76;74.03;101009.21;462575;114;923369;-71
2022/09/04 04:24:15;;;;;;;1.47;1.34;;;;;;;14.77;73.95;101005.40;462990;114;922527;-71
2022/09/04 04:25:48;;;;;;;1.95;1.59;;;;;;;14.78;73.97;101003.47;462830;114;922996;-71
2022/09/04 04:27:07;;;;;;;1.93;1.46;;;;;;;14.78;74.10;101001.56;462274;114;922489;-71
2022/09/04 04:28:21;;;;;;;2.75;1.85;;;;;;;14.77;74.19;101002.66;450645;114;926568;-71
2022/09/04 04:29:36;;;;;;;2.39;1.31;;;;;;;14.78;74.08;101004.30;446878;118;923209;-71
2022/09/04 04:30:51;;;;;;;3.03;1.44;;;;;;;14.79;74.01;101002.41;444501;119;922669;-71
2022/09/04 04:32:17;;;;;;;2.14;1.39;;;;;;;14.79;73.97;100996.91;459360;114;922950;-71
2022/09/04 04:33:24;;;;;;;3.02;1.55;;;;;;;14.81;73.87;100994.78;462899;114;923118;-71
2022/09/04 04:34:31;;;;;;;2.47;1.53;;;;;;;14.83;73.83;100990.72;462433;112;922629;-71
2022/09/04 04:36:06;;;;;;;2.49;1.53;;;;;;;14.85;73.71;100998.73;462693;114;922972;-71
2022/09/04 04:37:25;;;;;;;5.52;1.83;;;;;;;14.87;73.62;100985.62;462416;114;922548;-71
2022/09/04 04:38:38;;;;;;;1.74;1.39;;;;;;;14.89;73.27;100998.03;454527;116;923216;-71
2022/09/04 04:39:53;;;;;;;2.52;1.55;;;;;;;14.92;72.89;100988.50;454247;116;923216;-71
2022/09/04 04:41:01;;;;;;;1.90;1.37;;;;;;;14.92;72.61;100989.34;462601;114;922430;-71
2022/09/04 04:42:23;;;;;;;2.32;1.57;;;;;;;14.94;72.33;100998.16;462945;114;923020;-71
2022/09/04 04:43:32;;;;;;;2.12;1.77;;;;;;;14.96;72.11;100995.19;462943;114;923030;-71
2022/09/04 04:46:19;;;;;;;2.94;1.33;;;;;;;14.99;71.27;101001.08;462907;114;922555;-71
2022/09/04 04:47:35;;;;;;;2.61;1.52;;;;;;;14.97;70.53;101002.36;462087;114;922637;-71
2022/09/04 04:49:07;;;;;;;2.45;1.77;;;;;;;14.95;70.40;101005.33;462666;114;922897;-71
2022/09/04 04:50:17;;;;;;;1.93;1.50;;;;;;;14.94;70.07;101005.59;462928;114;923202;-71
2022/09/04 04:51:31;;;;;;;2.59;1.42;;;;;;;14.91;69.77;101012.38;462275;114;922551;-71
2022/09/04 04:52:52;;;;;;;2.07;1.23;;;;;;;14.90;69.49;101007.95;462917;114;922975;-71
2022/09/04 04:53:56;;;;;;;;;;;;;;;14.91;69.26;101004.13;466519;114;922585;-71
2022/09/04 04:55:06;;;;;;;1.77;1.16;;;;;;;14.91;68.66;101017.86;462960;114;922507;-71
2022/09/04 04:56:19;;;;;;;1.99;1.33;;;;;;;14.89;68.37;101014.50;463237;114;922548;-71
2022/09/04 04:57:53;;;;;;;2.21;1.42;;;;;;;14.88;68.14;101012.85;462637;114;922508;-71
2022/09/04 04:59:29;;;;;;;3.63;1.30;;;;;;;14.89;67.93;101013.66;469129;112;922670;-72
2022/09/04 05:01:03;;;;;;;2.00;1.49;;;;;;;14.91;67.47;101017.02;471172;112;923069;-71
2022/09/04 05:02:12;;;;;;;1.87;1.53;;;;;;;14.92;67.35;101026.94;470918;112;922505;-71
2022/09/04 05:03:31;;;;;;;1.61;1.39;;;;;;;14.94;66.96;101013.83;470921;112;922720;-71
2022/09/04 05:04:44;;;;;;;1.72;1.29;;;;;;;14.96;66.85;101017.16;470925;112;923080;-72
2022/09/04 05:06:06;;;;;;;1.45;1.32;;;;;;;14.98;66.61;101020.52;471241;112;923115;-72
2022/09/04 05:07:13;;;;;;;1.97;1.33;;;;;;;14.99;66.28;101013.96;470353;112;922904;-72
2022/09/04 05:08:38;;;;;;;2.32;1.57;;;;;;;15.00;66.06;101016.45;465398;112;922460;-72
2022/09/04 05:09:53;;;;;;;1.68;1.26;;;;;;;15.02;65.88;101025.31;471208;112;922576;-71
2022/09/04 05:11:03;;;;;;;1.98;1.17;;;;;;;15.03;65.56;101017.91;468769;112;922832;-72
2022/09/04 05:12:10;;;;;;;3.02;1.43;;;;;;;15.03;65.25;101018.75;470637;112;922733;-71
2022/09/04 05:13:25;;;;;;;1.34;1.21;;;;;;;15.03;65.01;101021.50;470205;112;922856;-71
2022/09/04 05:14:35;;;;;;;1.79;1.12;;;;;;;15.03;64.94;101024.24;470806;112;922568;-71
2022/09/04 05:16:07;;;;;;;2.02;1.38;;;;;;;15.04;64.93;101025.08;466338;112;922697;-71
2022/09/04 05:17:32;;;;;;;2.23;1.06;;;;;;;15.07;64.72;101021.86;462917;114;922483;-71
2022/09/04 05:18:50;;;;;;;1.39;1.13;;;;;;;15.07;64.28;101018.27;462888;114;922614;-72
2022/09/04 05:20:03;;;;;;;1.48;1.19;;;;;;;15.06;64.20;101011.09;462950;114;922867;-71
2022/09/04 05:21:12;;;;;;;1.37;1.01;;;;;;;15.06;64.10;101025.67;448741;117;923137;-70
2022/09/04 05:22:31;;;;;;;1.45;1.19;;;;;;;15.05;63.84;101029.48;459686;114;922974;-71
2022/09/04 05:23:45;;;;;;;1.73;1.29;;;;;;;15.04;63.53;101022.34;462573;114;922808;-71
2022/09/04 05:25:01;;;;;;;1.89;1.14;;;;;;;14.99;63.38;101020.30;462909;114;930373;-71
2022/09/04 05:26:23;;;;;;;1.98;1.67;;;;;;;14.94;63.15;101024.81;462929;114;922836;-70
2022/09/04 05:27:38;;;;;;;1.43;1.32;;;;;;;14.88;63.15;101021.09;462973;114;923036;-71
2022/09/04 05:29:04;;;;;;;1.87;1.53;;;;;;;14.84;63.28;101021.75;462924;114;923097;-71
2022/09/04 05:30:21;;;;;;;2.21;1.99;;;;;;;14.81;63.43;101017.58;462896;114;922447;-71
2022/09/04 05:31:30;;;;;;;3.04;1.79;;;;;;;14.81;63.19;101024.98;463021;114;922902;-71
2022/09/04 05:32:40;;;;;;;2.83;2.10;;;;;;;14.77;63.11;101021.03;462881;114;923114;-71
2022/09/04 05:34:08;;;;;;;2.29;1.76;;;;;;;14.76;63.19;101016.61;464156;112;922514;-70
2022/09/04 05:35:39;;;;;;;2.21;1.78;;;;;;;14.75;63.16;101021.25;470974;112;922833;-71
2022/09/04 05:37:03;;;;;;;2.38;1.77;;;;;;;14.71;62.90;101013.72;471178;112;923052;-71
2022/09/04 05:38:29;;;;;;;2.54;2.20;;;;;;;14.65;62.94;101012.73;471124;112;922883;-71
2022/09/04 05:39:54;;;;;;;2.08;1.57;;;;;;;14.61;63.03;101017.83;471040;112;923045;-70
2022/09/04 05:41:06;;;;;;;1.83;1.51;;;;;;;14.58;63.21;101021.05;471113;112;922490;-71
2022/09/04 05:42:44;;;;;;;2.27;1.87;;;;;;;14.55;63.08;101021.48;469686;112;923069;-71
2022/09/04 05:43:54;;;;;;;2.18;1.65;;;;;;;14.53;63.11;101031.88;471033;112;923139;-71
2022/09/04 05:45:03;;;;;;;1.62;1.52;;;;;;;14.53;63.20;101033.78;471140;112;922987;-71
2022/09/04 05:46:30;;;;;;;1.94;1.48;;;;;;;14.53;63.25;101039.27;457918;115;923186;-71
2022/09/04 05:47:40;;;;;;;1.60;1.37;;;;;;;14.54;63.28;101030.82;471171;112;923022;-71
2022/09/04 05:48:49;;;;;;;2.41;1.54;;;;;;;14.57;63.19;101037.73;471143;112;922904;-71
2022/09/04 05:50:09;;;;;;;1.67;1.48;;;;;;;14.59;63.33;101035.61;471214;112;923068;-71
2022/09/04 05:51:33;;;;;;;1.74;1.46;;;;;;;14.63;63.28;101035.98;451197;117;923356;-71
2022/09/04 05:53:03;;;;;;;2.02;1.68;;;;;;;14.65;63.17;101028.36;471195;112;923013;-70
2022/09/04 05:54:37;;;;;;;1.76;1.31;;;;;;;14.66;63.13;101032.79;471108;112;922512;-71
2022/09/04 05:55:58;;;;;;;2.59;1.58;;;;;;;14.66;63.07;101041.86;471141;112;923111;-70
2022/09/04 05:57:14;;;;;;;1.20;1.11;;;;;;;14.66;63.03;101041.02;471183;112;922993;-72
2022/09/04 05:58:35;;;;;;;1.22;1.09;;;;;;;14.65;62.93;101051.16;469200;112;922637;-71
2022/09/04 06:00:03;;;;;;;1.61;1.19;;;;;;;14.62;62.90;101046.11;462917;114;923202;-71
2022/09/04 06:01:34;;;;;;;2.99;1.57;;;;;;;14.61;62.98;101060.90;462733;114;922568;-71
2022/09/04 06:03:10;;;;;;;2.26;1.53;;;;;;;14.61;63.03;101055.41;462917;114;922636;-71